createdAt,value
2018-06-19T00:00:15.803Z,86.80
2018-06-19T00:02:49.801Z,87.00
2018-06-19T00:05:28.310Z,86.30
2018-06-19T00:08:02.541Z,85.50
2018-06-19T00:10:36.737Z,85.00
2018-06-19T00:13:10.546Z,84.90
2018-06-19T00:15:44.609Z,84.80
2018-06-19T00:18:22.365Z,84.80
2018-06-19T00:20:59.938Z,85.00
2018-06-19T00:23:33.645Z,85.30
2018-06-19T00:26:07.751Z,85.70
2018-06-19T00:28:44.004Z,86.10
2018-06-19T00:31:17.958Z,86.20
2018-06-19T00:33:51.940Z,87.00
2018-06-19T00:36:26.574Z,87.40
2018-06-19T00:39:00.563Z,88.00
2018-06-19T00:41:34.894Z,88.40
2018-06-19T00:44:09.880Z,88.90
2018-06-19T00:46:46.578Z,89.20
2018-06-19T00:49:20.552Z,89.70
2018-06-19T00:51:55.715Z,90.00
2018-06-19T00:54:29.927Z,90.40
2018-06-19T00:57:04.009Z,90.60
2018-06-19T00:59:38.081Z,90.90
2018-06-19T01:02:12.428Z,91.00
2018-06-19T01:04:46.315Z,91.30
2018-06-19T01:07:20.560Z,91.40
2018-06-19T01:09:54.295Z,91.60
2018-06-19T01:12:28.871Z,91.80
2018-06-19T01:15:02.936Z,92.00
2018-06-19T01:17:37.201Z,92.20
2018-06-19T01:20:11.348Z,92.30
2018-06-19T01:22:45.294Z,92.60
2018-06-19T01:25:19.343Z,92.70
2018-06-19T01:27:53.230Z,92.90
2018-06-19T01:30:27.167Z,93.00
2018-06-19T01:33:01.394Z,93.10
2018-06-19T01:35:35.232Z,93.20
2018-06-19T01:38:09.129Z,93.20
2018-06-19T01:40:43.614Z,93.20
2018-06-19T01:43:17.644Z,93.40
2018-06-19T01:45:51.311Z,93.50
2018-06-19T01:48:25.272Z,93.60
2018-06-19T01:50:59.410Z,93.80
2018-06-19T01:53:33.534Z,94.00
2018-06-19T01:56:07.368Z,94.20
2018-06-19T01:58:41.246Z,94.30
2018-06-19T02:01:15.366Z,94.30
2018-06-19T02:03:49.411Z,94.30
2018-06-19T02:06:23.169Z,94.30
2018-06-19T02:08:57.322Z,94.30
2018-06-19T02:11:31.142Z,94.40
2018-06-19T02:14:05.142Z,94.70
2018-06-19T02:16:39.031Z,94.70
2018-06-19T02:19:13.161Z,94.50
2018-06-19T02:21:47.009Z,94.30
2018-06-19T02:24:20.911Z,94.40
2018-06-19T02:26:54.886Z,94.20
2018-06-19T02:29:28.699Z,93.60
2018-06-19T02:32:02.524Z,93.00
2018-06-19T02:34:36.737Z,92.80
2018-06-19T02:37:10.734Z,92.70
2018-06-19T02:39:44.889Z,92.60
2018-06-19T02:42:19.348Z,92.40
2018-06-19T02:44:53.459Z,92.30
2018-06-19T02:47:27.277Z,92.40
2018-06-19T02:50:01.054Z,92.40
2018-06-19T02:52:35.278Z,92.40
2018-06-19T02:55:09.228Z,92.60
2018-06-19T02:57:43.302Z,92.70
2018-06-19T03:00:17.253Z,92.90
2018-06-19T03:02:51.081Z,92.40
2018-06-19T03:05:25.124Z,92.20
2018-06-19T03:07:58.981Z,92.10
2018-06-19T03:10:32.745Z,91.80
2018-06-19T03:13:06.664Z,91.80
2018-06-19T03:18:14.480Z,91.70
2018-06-19T03:23:22.185Z,91.40
2018-06-19T03:25:56.363Z,91.20
2018-06-19T03:28:30.421Z,91.20
2018-06-19T03:31:04.665Z,91.10
2018-06-19T03:33:39.125Z,91.20
2018-06-19T03:36:13.178Z,91.10
2018-06-19T03:38:46.940Z,91.30
2018-06-19T03:41:20.990Z,90.90
2018-06-19T03:43:55.125Z,90.60
2018-06-19T03:46:29.217Z,90.50
2018-06-19T03:49:03.768Z,90.80
2018-06-19T03:51:37.645Z,91.20
2018-06-19T03:54:12.134Z,91.20
2018-06-19T03:56:46.209Z,91.20
2018-06-19T03:59:20.251Z,91.20
2018-06-19T04:01:54.741Z,90.60
2018-06-19T04:04:29.044Z,90.90
2018-06-19T04:07:02.906Z,90.50
2018-06-19T04:09:37.214Z,90.60
2018-06-19T04:12:11.245Z,90.60
2018-06-19T04:14:49.071Z,90.60
2018-06-19T04:17:25.863Z,90.60
2018-06-19T04:19:59.849Z,90.70
2018-06-19T04:22:34.066Z,90.60
2018-06-19T04:25:07.939Z,90.70
2018-06-19T04:27:42.361Z,90.70
2018-06-19T04:30:16.273Z,90.60
2018-06-19T04:32:50.691Z,90.70
2018-06-19T04:35:24.895Z,90.40
2018-06-19T04:37:58.846Z,90.70
2018-06-19T04:40:32.815Z,90.70
2018-06-19T04:43:06.756Z,90.80
2018-06-19T04:45:40.784Z,90.80
2018-06-19T04:48:15.213Z,90.70
2018-06-19T04:50:49.151Z,90.50
2018-06-19T04:53:23.134Z,90.20
2018-06-19T04:55:57.499Z,89.30
2018-06-19T04:58:31.423Z,88.60
2018-06-19T05:01:05.399Z,87.80
2018-06-19T05:03:39.466Z,88.20
2018-06-19T05:06:13.410Z,88.40
2018-06-19T05:08:47.694Z,88.30
2018-06-19T05:11:21.590Z,87.50
2018-06-19T05:13:55.646Z,86.50
2018-06-19T05:16:29.816Z,86.30
2018-06-19T05:19:04.150Z,86.70
2018-06-19T05:21:38.238Z,86.80
2018-06-19T05:24:12.144Z,86.20
2018-06-19T05:26:46.374Z,86.80
2018-06-19T05:29:20.603Z,85.40
2018-06-19T05:31:55.054Z,85.10
2018-06-19T05:34:29.184Z,85.40
2018-06-19T05:37:03.102Z,85.20
2018-06-19T05:39:37.023Z,85.30
2018-06-19T05:42:10.976Z,85.90
2018-06-19T05:44:45.143Z,85.50
2018-06-19T05:47:20.115Z,85.50
2018-06-19T05:49:54.035Z,85.50
2018-06-19T05:52:28.124Z,85.90
2018-06-19T05:55:02.028Z,86.30
2018-06-19T05:57:36.271Z,86.00
2018-06-19T06:00:10.303Z,86.40
2018-06-19T06:02:44.488Z,86.80
2018-06-19T06:05:18.935Z,86.80
2018-06-19T06:10:27.165Z,86.40
2018-06-19T06:13:01.436Z,86.40
2018-06-19T06:15:35.310Z,86.20
2018-06-19T06:18:09.335Z,86.40
2018-06-19T06:23:17.664Z,87.10
2018-06-19T06:25:52.025Z,86.60
2018-06-19T06:28:25.994Z,86.40
2018-06-19T06:30:59.954Z,86.60
2018-06-19T06:33:34.760Z,86.40
2018-06-19T06:36:08.850Z,86.70
2018-06-19T06:38:43.144Z,85.60
2018-06-19T06:41:17.202Z,85.70
2018-06-19T06:43:51.609Z,85.90
2018-06-19T06:46:25.446Z,85.10
2018-06-19T06:48:59.446Z,84.80
2018-06-19T06:51:33.468Z,84.70
2018-06-19T06:54:07.881Z,84.80
2018-06-19T06:56:42.027Z,84.90
2018-06-19T06:59:16.342Z,84.80
2018-06-19T07:01:50.252Z,85.60
2018-06-19T07:04:24.631Z,86.00
2018-06-19T07:06:58.585Z,86.10
2018-06-19T07:09:32.651Z,85.20
2018-06-19T07:12:06.496Z,85.10
2018-06-19T07:14:40.559Z,85.20
2018-06-19T07:17:14.676Z,85.10
2018-06-19T07:19:48.831Z,85.10
2018-06-19T07:22:22.843Z,85.40
2018-06-19T07:24:56.924Z,85.10
2018-06-19T07:27:30.918Z,85.20
2018-06-19T07:30:04.968Z,85.10
2018-06-19T07:32:39.072Z,85.40
2018-06-19T07:35:13.620Z,85.20
2018-06-19T07:37:47.855Z,85.40
2018-06-19T07:40:21.910Z,85.10
2018-06-19T07:43:00.406Z,85.20
2018-06-19T07:45:34.661Z,85.20
2018-06-19T07:48:08.889Z,85.00
2018-06-19T07:50:43.122Z,85.10
2018-06-19T07:53:17.209Z,85.50
2018-06-19T07:55:51.150Z,85.30
2018-06-19T07:58:25.264Z,85.80
2018-06-19T08:00:59.216Z,86.00
2018-06-19T08:03:33.371Z,86.40
2018-06-19T08:06:07.154Z,86.70
2018-06-19T08:08:41.409Z,86.90
2018-06-19T08:11:15.324Z,86.60
2018-06-19T08:13:49.291Z,86.80
2018-06-19T08:16:23.307Z,87.20
2018-06-19T08:18:57.531Z,87.30
2018-06-19T08:21:31.524Z,88.20
2018-06-19T08:24:05.394Z,89.50
2018-06-19T08:26:39.299Z,90.00
2018-06-19T08:29:13.304Z,90.40
2018-06-19T08:31:47.352Z,90.80
2018-06-19T08:34:21.251Z,91.00
2018-06-19T08:36:55.279Z,91.70
2018-06-19T08:39:29.441Z,91.90
2018-06-19T08:42:03.595Z,92.50
2018-06-19T08:44:37.681Z,92.90
2018-06-19T08:47:11.749Z,93.30
2018-06-19T08:49:45.504Z,93.40
2018-06-19T08:52:19.439Z,92.90
2018-06-19T08:54:53.390Z,93.10
2018-06-19T08:57:27.206Z,93.10
2018-06-19T09:00:01.605Z,93.00
2018-06-19T09:02:35.473Z,92.90
2018-06-19T09:05:09.260Z,92.90
2018-06-19T09:07:43.917Z,93.40
2018-06-19T09:10:17.868Z,93.20
2018-06-19T09:12:51.889Z,93.10
2018-06-19T09:15:25.986Z,92.70
2018-06-19T09:18:00.666Z,92.90
2018-06-19T09:20:34.887Z,92.80
2018-06-19T09:23:09.215Z,92.60
2018-06-19T09:25:43.462Z,92.50
2018-06-19T09:28:17.624Z,92.50
2018-06-19T09:30:51.408Z,92.60
2018-06-19T09:33:26.106Z,92.60
2018-06-19T09:36:00.294Z,92.60
2018-06-19T09:38:34.365Z,93.00
2018-06-19T09:41:08.856Z,93.00
2018-06-19T09:43:42.980Z,93.10
2018-06-19T09:46:17.034Z,93.00
2018-06-19T09:48:51.211Z,93.10
2018-06-19T09:51:25.241Z,92.50
2018-06-19T09:53:59.465Z,92.40
2018-06-19T09:56:33.289Z,92.00
2018-06-19T09:59:07.972Z,92.30
2018-06-19T10:01:41.950Z,92.10
2018-06-19T10:04:16.111Z,92.10
2018-06-19T10:06:50.382Z,92.20
2018-06-19T10:09:24.329Z,92.30
2018-06-19T10:11:58.420Z,92.50
2018-06-19T10:14:32.226Z,92.60
2018-06-19T10:17:06.576Z,92.20
2018-06-19T10:19:40.632Z,92.10
2018-06-19T10:22:14.856Z,91.90
2018-06-19T10:24:48.695Z,91.60
2018-06-19T10:27:22.624Z,91.40
2018-06-19T10:29:56.731Z,91.70
2018-06-19T10:32:30.844Z,91.50
2018-06-19T10:35:05.690Z,91.10
2018-06-19T10:37:40.229Z,91.40
2018-06-19T10:40:14.658Z,91.10
2018-06-19T10:42:48.622Z,91.10
2018-06-19T10:45:22.650Z,91.00
2018-06-19T10:47:56.580Z,90.90
2018-06-19T10:50:30.540Z,91.20
2018-06-19T10:53:04.641Z,91.10
2018-06-19T10:55:38.912Z,90.90
2018-06-19T10:58:13.181Z,90.50
2018-06-19T11:00:53.618Z,90.60
2018-06-19T11:03:27.956Z,90.80
2018-06-19T11:06:02.998Z,90.70
2018-06-19T11:08:37.035Z,90.50
2018-06-19T11:11:11.055Z,90.50
2018-06-19T11:13:45.232Z,90.40
2018-06-19T11:16:19.246Z,90.50
2018-06-19T11:18:53.386Z,90.40
2018-06-19T11:21:27.340Z,90.30
2018-06-19T11:24:01.705Z,89.50
2018-06-19T11:26:35.964Z,89.80
2018-06-19T11:29:10.343Z,88.90
2018-06-19T11:31:44.380Z,88.90
2018-06-19T11:34:18.745Z,89.10
2018-06-19T11:36:52.655Z,89.40
2018-06-19T11:39:26.826Z,89.60
2018-06-19T11:42:01.141Z,89.30
2018-06-19T11:44:35.243Z,89.50
2018-06-19T11:47:09.877Z,90.00
2018-06-19T11:49:43.950Z,89.10
2018-06-19T11:52:18.369Z,89.20
2018-06-19T11:54:52.986Z,89.20
2018-06-19T11:57:27.037Z,89.80
2018-06-19T12:00:00.821Z,89.40
2018-06-19T12:02:34.965Z,89.90
2018-06-19T12:05:08.781Z,90.00
2018-06-19T12:07:44.430Z,89.00
2018-06-19T12:10:18.815Z,89.20
2018-06-19T12:12:53.191Z,89.10
2018-06-19T12:15:27.176Z,88.80
2018-06-19T12:18:01.331Z,88.40
2018-06-19T12:20:35.526Z,88.20
2018-06-19T12:25:43.475Z,88.30
2018-06-19T12:30:52.009Z,87.80
2018-06-19T12:33:26.146Z,87.70
2018-06-19T12:36:00.598Z,87.20
2018-06-19T12:38:34.521Z,87.60
2018-06-19T12:41:08.692Z,87.80
2018-06-19T12:43:42.864Z,87.20
2018-06-19T12:46:16.994Z,86.80
2018-06-19T12:48:51.305Z,86.00
2018-06-19T12:51:48.811Z,86.00
2018-06-19T12:55:35.767Z,86.50
2018-06-19T12:58:09.791Z,86.40
2018-06-19T13:00:43.654Z,86.00
2018-06-19T13:03:28.959Z,84.90
2018-06-19T13:06:14.261Z,85.10
2018-06-19T13:08:48.605Z,84.80
2018-06-19T13:11:22.748Z,84.30
2018-06-19T13:14:08.251Z,83.60
2018-06-19T13:16:53.657Z,84.00
2018-06-19T13:19:39.231Z,84.10
2018-06-19T13:22:13.165Z,84.80
2018-06-19T13:24:47.560Z,83.10
2018-06-19T13:27:22.094Z,82.00
2018-06-19T13:30:08.681Z,82.10
2018-06-19T13:32:42.582Z,82.60
2018-06-19T13:35:17.018Z,81.90
2018-06-19T13:37:51.141Z,81.30
2018-06-19T13:41:02.096Z,80.30
2018-06-19T13:43:47.563Z,79.10
2018-06-19T13:46:21.550Z,78.00
2018-06-19T13:48:55.829Z,77.90
2018-06-19T13:51:30.227Z,77.10
2018-06-19T13:54:04.594Z,76.70
2018-06-19T13:57:06.320Z,77.00
2018-06-19T13:59:41.061Z,76.40
2018-06-19T14:02:15.599Z,75.70
2018-06-19T14:04:49.869Z,76.00
2018-06-19T14:07:25.933Z,75.80
2018-06-19T14:10:20.181Z,76.70
2018-06-19T14:12:58.313Z,76.80
2018-06-19T14:15:41.965Z,76.30
2018-06-19T14:18:17.157Z,77.00
2018-06-19T14:20:51.310Z,76.20
2018-06-19T14:23:25.291Z,75.60
2018-06-19T14:25:59.550Z,75.10
2018-06-19T14:28:33.575Z,75.30
2018-06-19T14:31:07.742Z,75.40
2018-06-19T14:33:42.173Z,76.00
2018-06-19T14:36:16.340Z,75.90
2018-06-19T14:38:50.331Z,75.90
2018-06-19T14:41:24.531Z,75.90
2018-06-19T14:43:58.823Z,75.80
2018-06-19T14:46:33.261Z,75.20
2018-06-19T14:49:08.013Z,75.60
2018-06-19T14:51:42.292Z,76.50
2018-06-19T14:54:16.581Z,76.40
2018-06-19T14:56:50.725Z,75.90
2018-06-19T15:02:02.233Z,75.60
2018-06-19T15:04:36.605Z,75.70
2018-06-19T15:07:10.584Z,75.30
2018-06-19T15:09:44.997Z,74.90
2018-06-19T15:12:19.205Z,74.30
2018-06-19T15:14:53.523Z,74.60
2018-06-19T15:20:01.683Z,74.20
2018-06-19T15:22:36.564Z,73.20
2018-06-19T15:25:11.351Z,73.50
2018-06-19T15:27:45.609Z,72.70
2018-06-19T15:30:19.714Z,72.40
2018-06-19T15:32:54.226Z,71.90
2018-06-19T15:38:02.989Z,72.60
2018-06-19T15:40:37.545Z,72.80
2018-06-19T15:43:11.940Z,72.80
2018-06-19T15:45:46.070Z,72.80
2018-06-19T15:48:20.117Z,73.00
2018-06-19T15:50:54.158Z,73.30
2018-06-19T15:56:04.136Z,74.00
2018-06-19T15:58:38.771Z,74.40
2018-06-19T16:01:12.810Z,75.10
2018-06-19T16:03:47.063Z,75.60
2018-06-19T16:06:21.419Z,75.90
2018-06-19T16:08:55.622Z,76.50
2018-06-19T16:14:04.297Z,74.80
2018-06-19T16:16:38.794Z,75.00
2018-06-19T16:19:12.810Z,75.40
2018-06-19T16:21:47.298Z,75.00
2018-06-19T16:24:21.541Z,75.10
2018-06-19T16:26:55.567Z,75.20
2018-06-19T16:29:30.001Z,75.70
2018-06-19T16:32:04.158Z,75.50
2018-06-19T16:34:38.374Z,75.50
2018-06-19T16:37:12.594Z,75.40
2018-06-19T16:39:46.884Z,75.50
2018-06-19T16:42:21.120Z,75.80
2018-06-19T16:44:55.172Z,75.80
2018-06-19T16:47:30.512Z,76.30
2018-06-19T16:50:04.883Z,76.70
2018-06-19T16:52:39.162Z,76.70
2018-06-19T16:55:13.346Z,76.90
2018-06-19T16:57:47.271Z,76.90
2018-06-19T17:00:21.665Z,77.10
2018-06-19T17:02:56.217Z,76.50
2018-06-19T17:05:30.654Z,76.00
2018-06-19T17:08:05.059Z,75.80
2018-06-19T17:10:39.146Z,76.10
2018-06-19T17:13:14.181Z,76.30
2018-06-19T17:15:48.758Z,76.70
2018-06-19T17:18:23.479Z,77.10
2018-06-19T17:20:57.930Z,77.50
2018-06-19T17:23:33.085Z,77.90
2018-06-19T17:26:07.502Z,77.40
2018-06-19T17:31:15.721Z,76.60
2018-06-19T17:33:49.927Z,76.70
2018-06-19T17:36:24.304Z,76.80
2018-06-19T17:38:58.296Z,76.60
2018-06-19T17:41:32.813Z,77.00
2018-06-19T17:44:07.484Z,77.10
2018-06-19T17:46:41.925Z,77.20
2018-06-19T17:49:15.911Z,77.50
2018-06-19T17:51:50.008Z,78.10
2018-06-19T17:54:24.256Z,78.00
2018-06-19T17:56:58.669Z,78.20
2018-06-19T17:59:32.855Z,78.30
2018-06-19T18:02:07.632Z,78.20
2018-06-19T18:04:42.006Z,78.40
2018-06-19T18:07:16.184Z,78.40
2018-06-19T18:12:24.406Z,78.80
2018-06-19T18:14:59.081Z,78.50
2018-06-19T18:17:33.427Z,78.50
2018-06-19T18:20:07.606Z,78.80
2018-06-19T18:22:41.872Z,78.70
2018-06-19T18:25:16.076Z,79.00
2018-06-19T18:27:50.452Z,78.90
2018-06-19T18:30:24.570Z,79.30
2018-06-19T18:32:58.960Z,79.30
2018-06-19T18:35:33.071Z,79.70
2018-06-19T18:38:07.194Z,79.80
2018-06-19T18:40:41.611Z,79.90
2018-06-19T18:43:16.156Z,80.10
2018-06-19T18:45:50.563Z,80.50
2018-06-19T18:48:24.610Z,80.40
2018-06-19T18:50:58.982Z,80.60
2018-06-19T18:53:33.296Z,80.80
2018-06-19T18:56:07.728Z,81.10
2018-06-19T18:58:41.925Z,81.10
2018-06-19T19:01:16.380Z,81.20
2018-06-19T19:03:50.484Z,81.30
2018-06-19T19:06:24.756Z,81.30
2018-06-19T19:08:59.411Z,81.30
2018-06-19T19:11:33.957Z,81.50
2018-06-19T19:14:08.146Z,81.60
2018-06-19T19:16:48.506Z,81.60
2018-06-19T19:19:24.542Z,81.70
2018-06-19T19:21:59.555Z,81.90
2018-06-19T19:24:34.652Z,82.20
2018-06-19T19:27:14.801Z,82.40
2018-06-19T19:29:50.465Z,82.30
2018-06-19T19:32:25.690Z,82.20
2018-06-19T19:35:00.283Z,82.50
2018-06-19T19:37:40.074Z,82.50
2018-06-19T19:40:20.187Z,82.80
2018-06-19T19:42:54.712Z,83.00
2018-06-19T19:45:29.330Z,82.90
2018-06-19T19:48:09.557Z,83.00
2018-06-19T19:50:43.969Z,83.30
2018-06-19T19:53:18.164Z,83.60
2018-06-19T19:55:58.172Z,83.40
2018-06-19T19:58:37.866Z,83.60
2018-06-19T20:01:13.191Z,84.00
2018-06-19T20:03:48.153Z,84.20
2018-06-19T20:06:23.089Z,84.10
2018-06-19T20:08:57.256Z,84.70
2018-06-19T20:11:31.465Z,84.50
2018-06-19T20:14:06.216Z,85.10
2018-06-19T20:16:40.466Z,85.30
2018-06-19T20:19:14.600Z,85.10
2018-06-19T20:21:48.694Z,85.60
2018-06-19T20:24:23.258Z,86.80
2018-06-19T20:26:57.601Z,86.70
2018-06-19T20:29:32.164Z,88.00
2018-06-19T20:32:06.716Z,88.60
2018-06-19T20:34:41.089Z,89.10
2018-06-19T20:37:15.252Z,89.60
2018-06-19T20:39:49.436Z,90.10
2018-06-19T20:42:23.885Z,90.30
2018-06-19T20:44:58.651Z,90.50
2018-06-19T20:47:32.785Z,90.70
2018-06-19T20:50:07.711Z,90.80
2018-06-19T20:52:42.315Z,91.30
2018-06-19T20:57:50.606Z,91.30
2018-06-19T21:00:25.049Z,91.30
2018-06-19T21:02:59.656Z,91.70
2018-06-19T21:05:33.876Z,91.50
2018-06-19T21:08:08.261Z,91.50
2018-06-19T21:10:42.212Z,91.50
2018-06-19T21:13:16.474Z,91.60
2018-06-19T21:15:50.634Z,91.70
2018-06-19T21:18:24.542Z,91.90
2018-06-19T21:20:59.181Z,92.00
2018-06-19T21:23:33.254Z,92.10
2018-06-19T21:26:07.755Z,92.10
2018-06-19T21:28:41.844Z,92.20
2018-06-19T21:31:15.831Z,92.30
2018-06-19T21:33:50.065Z,92.30
2018-06-19T21:36:24.195Z,92.40
2018-06-19T21:38:58.406Z,92.50
2018-06-19T21:41:32.482Z,92.60
2018-06-19T21:44:06.734Z,92.60
2018-06-19T21:46:40.524Z,92.70
2018-06-19T21:49:14.519Z,92.70
2018-06-19T21:51:48.716Z,92.70
2018-06-19T21:54:22.658Z,92.70
2018-06-19T21:56:56.633Z,92.80
2018-06-19T21:59:30.717Z,92.80
2018-06-19T22:02:04.989Z,92.70
2018-06-19T22:04:39.027Z,92.60
2018-06-19T22:07:13.176Z,92.90
2018-06-19T22:09:47.102Z,92.90
2018-06-19T22:12:21.115Z,93.00
2018-06-19T22:14:55.297Z,93.10
2018-06-19T22:17:29.649Z,93.00
2018-06-19T22:20:03.780Z,93.10
2018-06-19T22:22:37.618Z,93.10
2018-06-19T22:25:11.505Z,93.10
2018-06-19T22:27:45.629Z,93.10
2018-06-19T22:30:19.791Z,93.00
2018-06-19T22:32:53.861Z,93.30
2018-06-19T22:35:27.889Z,93.00
2018-06-19T22:38:01.864Z,93.10
2018-06-19T22:40:35.972Z,93.20
2018-06-19T22:43:10.195Z,93.20
2018-06-19T22:45:44.161Z,93.30
2018-06-19T22:48:18.961Z,93.30
2018-06-19T22:50:53.801Z,93.20
2018-06-19T22:53:28.039Z,93.60
2018-06-19T22:56:02.033Z,93.60
2018-06-19T22:58:36.108Z,93.70
2018-06-19T23:01:10.144Z,93.70
2018-06-19T23:03:44.173Z,93.80
2018-06-19T23:06:18.455Z,93.80
2018-06-19T23:08:52.548Z,93.80
2018-06-19T23:11:26.546Z,93.90
2018-06-19T23:14:01.145Z,94.00
2018-06-19T23:16:35.156Z,93.90
2018-06-19T23:19:09.266Z,93.80
2018-06-19T23:21:43.411Z,93.70
2018-06-19T23:24:17.383Z,93.70
2018-06-19T23:26:51.553Z,93.80
2018-06-19T23:29:25.425Z,93.90
2018-06-19T23:31:59.428Z,94.00
2018-06-19T23:34:33.443Z,94.10
2018-06-19T23:37:07.395Z,94.20
2018-06-19T23:39:41.203Z,94.30
2018-06-19T23:42:15.074Z,94.30
2018-06-19T23:44:49.281Z,94.30
2018-06-19T23:47:23.104Z,94.30
2018-06-19T23:49:57.504Z,94.30
2018-06-19T23:52:31.635Z,94.30
2018-06-19T23:55:07.292Z,94.30
2018-06-19T23:57:42.038Z,94.40
